Aérodrome :
LOGIN :

S'inscrire | Disclaimer

   EN    FR    IT 

 










Légende :    VFR   VFR Marginal   IFR   IFR Intensif   IFR Très Intensif
Visi : 
Plafond : 
>= 8 km
>= 3000ft
5 à 8 km
1000 à 3000 ft
1500m à 5 km
500 à 1000 ft
800 à 1500m
200 à 500 ft
< 800m
< 200 ft
Symboles :   Orages  Brouillard  Fortes neiges  Fortes précipitations  Vent > 20 kt
SIGMETs :   Divers  Orages  Givrage  Turbulence  Onde Orograph.  Cendres Volcan.







- Altitude de l'aérodrome : 124 ft
- Code IATA : RNS
- Voir les cartes d'approche


LFRN - Rennes

DERNIER METAR :
  • 170130Z AUTO 00000KT 0500 0400 R28L/1000U R10R/0400D FG NSC 08/08 Q1019 TEMPO VV///

METARs EXPIRÉS :
  • 170100Z AUTO 16001KT 2600 0650 R28L/0750D R10R/0900U BCFG NSC 08/08 Q1019 TEMPO 0500 FG VV///
  • 170030Z AUTO 19002KT 1400 0450 R28L/P2000 R10R/0450U BCFG NSC 09/09 Q1019 TEMPO 0500 FG VV///
  • 170000Z AUTO 00000KT 6000 0400 R28L/P2000 R10R/0450N BCFG NSC 09/08 Q1019 TEMPO 0500 FG VV///
  • 162330Z AUTO 17002KT CAVOK 09/09 Q1019 TEMPO 0500 FG VV///
  • 162300Z AUTO 21003KT 9999 1200 R28L/P2000 R10R/0750D NSC 09/08 Q1019 BECMG 3000 BR
  • 162230Z AUTO 19003KT 9999 0500 R28L/P2000 R10R/0650U BCFG NSC 10/09 Q1019 BECMG 3000 BR

TAF TAF LFRN
Valide du 17 à 00h jusqu'au 18 à 00h UTC


162300Z 1700/1724 VRB03KT CAVOK
BECMG 1700/1703 3000 BR NSC
TEMPO 1700/1708 0500 FG VV///
BECMG 1708/1710 9999 NSW
BECMG 1718/1721 01007KT
ATIS : +33 2 99 67 72 50
Pas de NOTAMs connus pour ce terrain.



MET'MAP, la Météo Aéronautique d'un coup d'oeil ! - Copyright ORBIFLY Décembre 2007 - Disclaimer

ORBIFLY MET'MAP TEAM :

Programmation & Développement : Alexandra Zaïnal
Conception & Développement : Baudouin d'Aumeries
Co-Programmation & Développement : Marc-Olivier Méhu
Soutien technique & logistique : Manuel Goepfert

Contact : metmap@orbifly.com




SOURCES & CREDITS :

   NOAA